Terminal Aerodrome Forecast
Issued by NWS Twin Cities, MN

Home | Current Version | Previous Version | Graphics & Text | Print | Product List | Glossary On
Versions: 1 2 3 4 5 6 7 8 9 10 11 12 13 14 15 16 17 18 19
525
FTUS43 KMPX 190520
TAFSTC
TAF
KSTC 190520Z 1906/2006 00000KT 6SM BR SKC
     FM191000 00000KT 3SM BR SKC
     FM191300 13008KT P6SM SKC
     FM191800 13009G16KT P6SM VCSH SCT100 BKN250
     FM200000 08010KT P6SM VCSH BKN050 OVC100 PROB30 2002/2006 5SM
      -TSRA BKN050CB=

USA.gov is the U.S. government's official web portal to all federal, state and local government web resources and services.